Time;durP1;ratioP1;P1;durP2;ratioP2;P2;SDS_P1;SDS_P2;PMS_P1;PMS_P2;Temp;Humidity;BMP_temperature;BMP_pressure;BME280_temperature;BME280_humidity;BME280_pressure;Samples;Min_cycle;Max_cycle;Signal;HPM_P1;HPM_P2
2022/07/12 00:02:01;;;;;;;2.90;2.20;;;16.70;84.90;;;;;;5070371;28;20450;-64
2022/07/12 00:04:28;;;;;;;2.57;1.50;;;16.60;85.00;;;;;;5065772;28;20447;-66
2022/07/12 00:06:56;;;;;;;3.50;2.17;;;16.60;84.70;;;;;;5070574;28;20440;-64
2022/07/12 00:09:23;;;;;;;3.70;2.10;;;16.60;84.60;;;;;;5071161;28;20440;-65
2022/07/12 00:11:50;;;;;;;4.20;1.80;;;16.60;84.50;;;;;;5070876;28;20475;-64
2022/07/12 00:14:18;;;;;;;2.80;2.00;;;16.60;84.60;;;;;;5072664;28;20788;-64
2022/07/12 00:16:47;;;;;;;4.27;2.60;;;16.60;85.10;;;;;;5072260;28;20439;-64
2022/07/12 00:19:15;;;;;;;3.40;2.80;;;16.50;85.20;;;;;;5072809;28;20440;-64
2022/07/12 00:21:42;;;;;;;4.73;2.27;;;16.50;85.80;;;;;;5072637;28;20938;-64
2022/07/12 00:24:09;;;;;;;3.73;2.37;;;16.40;86.20;;;;;;5073287;28;20440;-64
2022/07/12 00:26:37;;;;;;;5.80;2.80;;;16.40;85.90;;;;;;5072864;28;20867;-65
2022/07/12 00:29:04;;;;;;;3.30;2.50;;;16.40;85.90;;;;;;5073115;28;20501;-64
2022/07/12 00:31:33;;;;;;;5.17;2.27;;;16.40;86.80;;;;;;5072905;28;20479;-64
2022/07/12 00:34:02;;;;;;;3.17;2.07;;;16.30;87.20;;;;;;5072649;28;20444;-65
2022/07/12 00:36:29;;;;;;;2.70;1.97;;;16.30;87.10;;;;;;5072787;28;20785;-64
2022/07/12 00:38:56;;;;;;;4.13;2.50;;;16.20;87.20;;;;;;5071937;28;20444;-64
2022/07/12 00:41:23;;;;;;;3.90;2.17;;;16.10;87.20;;;;;;5072735;28;20474;-64
2022/07/12 00:43:51;;;;;;;4.00;2.10;;;16.10;88.40;;;;;;5072314;28;20440;-64
2022/07/12 00:46:22;;;;;;;3.10;2.40;;;16.00;88.10;;;;;;5072414;28;20938;-64
2022/07/12 00:48:52;;;;;;;3.00;1.90;;;16.00;88.10;;;;;;5071309;28;20435;-64
2022/07/12 00:51:19;;;;;;;3.17;1.90;;;16.00;88.00;;;;;;5072298;28;20476;-65
2022/07/12 00:53:47;;;;;;;2.67;1.93;;;16.00;87.70;;;;;;5071787;28;20935;-64
2022/07/12 00:56:17;;;;;;;3.00;2.10;;;16.00;87.70;;;;;;5071994;28;20447;-64
2022/07/12 00:58:44;;;;;;;4.53;2.10;;;16.00;87.90;;;;;;5072463;28;20432;-64
2022/07/12 01:01:12;;;;;;;3.43;2.10;;;16.10;88.10;;;;;;5070993;28;20442;-64
2022/07/12 01:03:42;;;;;;;3.60;1.97;;;16.00;88.00;;;;;;5072654;28;20447;-64
2022/07/12 01:06:11;;;;;;;5.20;2.40;;;16.00;88.80;;;;;;5071882;28;20471;-65
2022/07/12 01:08:38;;;;;;;3.83;2.20;;;15.90;88.50;;;;;;5072404;28;20518;-64
2022/07/12 01:11:06;;;;;;;3.90;2.73;;;15.90;88.20;;;;;;5072132;28;20476;-65
2022/07/12 01:13:33;;;;;;;3.90;2.20;;;15.90;88.80;;;;;;5072434;28;20436;-64
2022/07/12 01:16:01;;;;;;;4.47;3.40;;;15.80;87.90;;;;;;5071778;28;20483;-65
2022/07/12 01:18:29;;;;;;;4.17;3.40;;;15.70;88.50;;;;;;5071968;28;20443;-65
2022/07/12 01:20:56;;;;;;;4.20;2.70;;;15.50;89.80;;;;;;5071773;28;20440;-64
2022/07/12 01:23:29;;;;;;;3.40;2.57;;;15.50;90.00;;;;;;5072011;28;20471;-64
2022/07/12 01:25:58;;;;;;;3.40;2.20;;;15.40;90.00;;;;;;5071772;28;20486;-64
2022/07/12 01:28:27;;;;;;;2.80;2.10;;;15.40;90.40;;;;;;5072017;28;20499;-64
2022/07/12 01:30:54;;;;;;;3.77;2.73;;;15.30;90.70;;;;;;5071839;28;20450;-64
2022/07/12 01:33:21;;;;;;;4.73;3.33;;;15.20;90.80;;;;;;5072122;28;20499;-64
2022/07/12 01:35:49;;;;;;;5.30;3.70;;;15.10;90.80;;;;;;5071024;28;20440;-65
2022/07/12 01:38:17;;;;;;;5.23;3.60;;;15.10;91.30;;;;;;5071616;28;20444;-65
2022/07/12 01:40:47;;;;;;;4.10;3.20;;;15.10;91.10;;;;;;5071537;28;20435;-64
2022/07/12 01:43:14;;;;;;;6.37;2.93;;;15.10;91.20;;;;;;5072007;28;20518;-64
2022/07/12 01:45:42;;;;;;;5.47;3.90;;;15.10;91.10;;;;;;5071909;28;20463;-64
2022/07/12 01:48:10;;;;;;;7.60;6.23;;;15.10;91.40;;;;;;5072185;28;20874;-64
2022/07/12 01:50:37;;;;;;;8.77;4.77;;;15.00;91.60;;;;;;5071523;28;20494;-64
2022/07/12 01:53:08;;;;;;;5.40;3.70;;;15.00;91.70;;;;;;5071209;28;20562;-66
2022/07/12 01:55:35;;;;;;;12.23;3.50;;;14.90;91.70;;;;;;5071658;28;20442;-65
2022/07/12 01:58:04;;;;;;;5.30;3.20;;;14.90;91.80;;;;;;5071390;28;20436;-64
2022/07/12 02:00:32;;;;;;;5.63;3.00;;;14.90;91.70;;;;;;5071327;28;20436;-65
2022/07/12 02:02:59;;;;;;;4.13;2.70;;;14.90;91.50;;;;;;5071975;28;20806;-64
2022/07/12 02:05:28;;;;;;;5.53;3.27;;;14.90;91.50;;;;;;5071370;28;20480;-65
2022/07/12 02:07:56;;;;;;;6.10;3.10;;;15.00;91.40;;;;;;5071904;28;20782;-64
2022/07/12 02:10:25;;;;;;;3.93;2.50;;;15.00;91.40;;;;;;5071947;28;20440;-64
2022/07/12 02:12:52;;;;;;;3.80;2.27;;;15.00;91.70;;;;;;5072590;28;20482;-64
2022/07/12 02:15:21;;;;;;;5.73;3.20;;;14.90;91.80;;;;;;5074798;28;20436;-65
2022/07/12 02:17:48;;;;;;;3.70;2.70;;;14.90;91.80;;;;;;5075061;28;20443;-65
2022/07/12 02:20:15;;;;;;;5.10;3.27;;;14.90;91.70;;;;;;5075306;28;20439;-64
2022/07/12 02:22:43;;;;;;;5.50;4.27;;;15.00;91.70;;;;;;5075381;28;20439;-65
2022/07/12 02:25:10;;;;;;;6.33;3.30;;;14.90;91.50;;;;;;5075317;28;20782;-64
2022/07/12 02:27:40;;;;;;;4.63;3.40;;;14.90;91.60;;;;;;5074659;28;20460;-65
2022/07/12 02:30:09;;;;;;;7.10;3.77;;;14.90;91.30;;;;;;5075268;28;20439;-65
2022/07/12 02:32:38;;;;;;;4.37;3.20;;;14.90;91.20;;;;;;5074006;28;20562;-64
2022/07/12 02:35:06;;;;;;;4.77;3.10;;;14.90;91.10;;;;;;5074813;28;20475;-65
2022/07/12 02:37:35;;;;;;;5.37;4.10;;;14.80;90.90;;;;;;5074705;28;20497;-65
2022/07/12 02:42:49;;;;;;;3.50;2.43;;;14.70;91.00;;;;;;5074565;28;20513;-64
2022/07/12 02:45:16;;;;;;;4.87;3.47;;;14.70;91.10;;;;;;5074653;28;20450;-64
2022/07/12 02:47:45;;;;;;;5.60;3.17;;;14.70;91.00;;;;;;5074322;28;20438;-64
2022/07/12 02:50:12;;;;;;;3.13;2.13;;;14.70;90.90;;;;;;5075082;28;20522;-64
2022/07/12 02:52:40;;;;;;;5.70;2.30;;;14.70;90.90;;;;;;5074199;28;20541;-64
2022/07/12 02:55:07;;;;;;;4.63;2.77;;;14.60;90.80;;;;;;5074066;28;20432;-65
2022/07/12 02:57:34;;;;;;;6.07;2.97;;;14.50;91.10;;;;;;5074456;28;20435;-64
2022/07/12 03:00:01;;;;;;;5.73;2.80;;;14.40;90.70;;;;;;5074018;28;20455;-66
2022/07/12 03:02:28;;;;;;;4.40;2.90;;;14.30;91.50;;;;;;5074872;28;20444;-66
2022/07/12 03:04:58;;;;;;;3.37;2.90;;;14.10;91.70;;;;;;5074243;28;21076;-64
2022/07/12 03:07:25;;;;;;;4.63;2.20;;;13.90;91.90;;;;;;5074264;28;20440;-65
2022/07/12 03:09:52;;;;;;;4.70;2.97;;;13.80;92.20;;;;;;5074250;28;20451;-64
2022/07/12 03:12:19;;;;;;;3.30;2.10;;;13.70;93.10;;;;;;5074110;28;20557;-64
2022/07/12 03:14:47;;;;;;;3.40;2.27;;;13.60;93.20;;;;;;5074139;28;20436;-64
2022/07/12 03:17:14;;;;;;;3.30;2.20;;;13.60;93.20;;;;;;5074423;28;20490;-64
2022/07/12 03:19:41;;;;;;;3.53;2.60;;;13.70;93.30;;;;;;5073515;28;20918;-65
2022/07/12 03:22:10;;;;;;;4.57;3.57;;;13.70;93.60;;;;;;5073972;28;20480;-65
2022/07/12 03:24:37;;;;;;;3.40;2.40;;;13.70;93.50;;;;;;5072580;28;20836;-64
2022/07/12 03:27:05;;;;;;;3.90;2.90;;;13.70;93.60;;;;;;5073772;28;20561;-64
2022/07/12 03:29:32;;;;;;;3.87;3.13;;;13.80;93.60;;;;;;5073551;28;20973;-64
2022/07/12 03:31:59;;;;;;;4.70;2.50;;;13.80;93.50;;;;;;5073588;28;20982;-64
2022/07/12 03:34:27;;;;;;;3.73;1.90;;;13.80;93.60;;;;;;5073488;28;20440;-65
2022/07/12 03:36:54;;;;;;;2.23;1.63;;;13.80;93.40;;;;;;5073771;28;20447;-64
2022/07/12 03:39:23;;;;;;;4.93;1.97;;;13.90;93.50;;;;;;5073325;28;20772;-64
2022/07/12 03:41:50;;;;;;;3.00;2.20;;;13.90;93.50;;;;;;5073470;28;20483;-64
2022/07/12 03:44:17;;;;;;;3.20;2.40;;;13.80;93.40;;;;;;5072852;28;20487;-64
2022/07/12 03:46:45;;;;;;;3.33;1.90;;;13.80;93.60;;;;;;5073524;28;20440;-64
2022/07/12 03:49:18;;;;;;;8.00;2.67;;;13.70;93.80;;;;;;5073293;28;20961;-64
2022/07/12 03:51:45;;;;;;;7.63;2.73;;;13.50;93.80;;;;;;5073254;28;20555;-64
2022/07/12 03:54:14;;;;;;;5.60;3.50;;;13.60;93.90;;;;;;5072974;28;20432;-64
2022/07/12 03:59:29;;;;;;;10.53;5.53;;;13.50;94.50;;;;;;5072878;28;20946;-64
2022/07/12 04:01:56;;;;;;;11.90;5.50;;;13.40;94.70;;;;;;5073083;28;20942;-64
2022/07/12 04:04:23;;;;;;;5.30;3.90;;;13.40;94.80;;;;;;5072990;28;20440;-65
2022/07/12 04:06:50;;;;;;;4.37;3.40;;;13.40;95.10;;;;;;5073621;28;20436;-64
2022/07/12 04:09:18;;;;;;;5.90;3.60;;;13.50;95.20;;;;;;5072983;28;20971;-64
2022/07/12 04:11:47;;;;;;;8.20;5.43;;;13.60;95.30;;;;;;5073460;28;20906;-64
2022/07/12 04:14:14;;;;;;;7.90;4.57;;;13.60;95.20;;;;;;5072969;28;20805;-64
2022/07/12 04:16:41;;;;;;;10.23;4.80;;;13.70;94.90;;;;;;5073634;28;20454;-64
2022/07/12 04:19:10;;;;;;;8.17;4.60;;;13.70;94.90;;;;;;5072856;28;20440;-64
2022/07/12 04:21:38;;;;;;;11.10;5.83;;;13.60;94.80;;;;;;5073300;28;20501;-64
2022/07/12 04:24:06;;;;;;;6.30;2.90;;;13.60;94.90;;;;;;5072621;28;20454;-67
2022/07/12 04:26:33;;;;;;;3.50;2.60;;;13.60;95.00;;;;;;5073041;28;20440;-66
2022/07/12 04:29:02;;;;;;;4.50;3.07;;;13.60;95.30;;;;;;5072467;28;20463;-67
2022/07/12 04:31:29;;;;;;;5.37;3.17;;;13.60;95.30;;;;;;5072587;28;20534;-67
2022/07/12 04:33:56;;;;;;;5.43;2.10;;;13.70;95.30;;;;;;5072848;28;20475;-67
2022/07/12 04:36:23;;;;;;;3.50;2.43;;;13.80;95.20;;;;;;5072511;28;20440;-67
2022/07/12 04:38:50;;;;;;;4.23;3.00;;;13.80;95.20;;;;;;5072812;28;20474;-67
2022/07/12 04:41:18;;;;;;;5.13;2.80;;;13.90;95.30;;;;;;5072921;28;20440;-67
2022/07/12 04:43:45;;;;;;;3.70;3.10;;;14.00;95.30;;;;;;5072693;28;20447;-67
2022/07/12 04:46:13;;;;;;;3.77;2.80;;;14.00;95.60;;;;;;5071778;28;20443;-66
2022/07/12 04:48:41;;;;;;;3.67;2.37;;;14.00;96.20;;;;;;5072966;28;20440;-67
2022/07/12 04:51:08;;;;;;;4.23;2.93;;;14.00;96.40;;;;;;5072541;28;20440;-67
2022/07/12 04:53:35;;;;;;;5.47;3.20;;;14.00;96.30;;;;;;5072486;28;20519;-68
2022/07/12 04:56:03;;;;;;;4.80;3.00;;;14.00;96.50;;;;;;5071561;28;20503;-67
2022/07/12 04:58:30;;;;;;;7.03;3.97;;;14.10;96.90;;;;;;5072816;28;20518;-67
2022/07/12 05:00:57;;;;;;;5.77;3.30;;;14.20;97.00;;;;;;5072330;28;20927;-66
2022/07/12 05:03:26;;;;;;;3.80;2.80;;;14.30;97.30;;;;;;5072680;28;20482;-67
2022/07/12 05:05:55;;;;;;;3.50;2.67;;;14.40;97.30;;;;;;5072135;28;20432;-67
2022/07/12 05:08:23;;;;;;;4.77;3.10;;;14.50;97.30;;;;;;5071930;28;20431;-64
2022/07/12 05:10:50;;;;;;;8.00;4.30;;;14.60;97.00;;;;;;5072400;28;20795;-65
2022/07/12 05:13:17;;;;;;;5.10;2.90;;;14.70;96.90;;;;;;5071999;28;20476;-64
2022/07/12 05:15:44;;;;;;;3.10;2.40;;;14.70;97.00;;;;;;5069619;28;20435;-65
2022/07/12 05:18:12;;;;;;;4.77;2.40;;;14.80;97.00;;;;;;5070538;28;20447;-65
2022/07/12 05:20:41;;;;;;;4.17;2.77;;;14.80;96.80;;;;;;5070984;28;20440;-65
2022/07/12 05:23:09;;;;;;;6.23;3.20;;;14.80;97.10;;;;;;5061347;28;20444;-65
2022/07/12 05:25:36;;;;;;;4.83;3.00;;;14.90;96.90;;;;;;5062680;28;20501;-65
2022/07/12 05:28:05;;;;;;;5.10;3.17;;;14.90;96.80;;;;;;5067177;28;20525;-65
2022/07/12 05:30:33;;;;;;;3.80;2.83;;;14.90;96.70;;;;;;5067139;28;20463;-65
2022/07/12 05:33:00;;;;;;;4.27;3.23;;;15.00;96.80;;;;;;5065556;28;20475;-66
2022/07/12 05:35:27;;;;;;;5.30;3.20;;;15.10;97.40;;;;;;5064943;28;20428;-65
2022/07/12 05:37:56;;;;;;;6.50;2.73;;;15.20;98.00;;;;;;5068390;28;20451;-66
2022/07/12 05:40:23;;;;;;;7.27;2.87;;;15.30;97.50;;;;;;5066834;28;20440;-65
2022/07/12 05:42:51;;;;;;;4.70;2.80;;;15.40;97.50;;;;;;5067624;28;20447;-65
2022/07/12 05:45:23;;;;;;;7.27;3.03;;;15.50;97.40;;;;;;5069222;28;20460;-65
2022/07/12 05:47:52;;;;;;;4.70;3.17;;;15.60;97.20;;;;;;5070655;28;20852;-65
2022/07/12 05:50:22;;;;;;;4.30;2.47;;;15.80;97.20;;;;;;5073400;28;20436;-65
2022/07/12 05:55:40;;;;;;;3.10;2.43;;;16.00;96.80;;;;;;5073256;28;20461;-65
2022/07/12 05:58:09;;;;;;;5.43;3.67;;;16.10;96.90;;;;;;5072733;28;21270;-64
2022/07/12 06:00:55;;;;;;;3.73;2.83;;;16.20;96.60;;;;;;5072487;28;20439;-65
2022/07/12 06:03:25;;;;;;;7.50;3.53;;;16.30;96.20;;;;;;5070858;28;20467;-65
2022/07/12 06:05:54;;;;;;;5.70;2.83;;;16.50;96.20;;;;;;5070059;28;20443;-66
2022/07/12 06:08:23;;;;;;;3.97;2.43;;;16.60;96.40;;;;;;5073528;28;20918;-65
2022/07/12 06:10:51;;;;;;;4.30;3.30;;;16.70;96.20;;;;;;5073523;28;20494;-66
2022/07/12 06:13:18;;;;;;;4.70;3.33;;;16.80;95.90;;;;;;5073031;28;20475;-67
2022/07/12 06:15:46;;;;;;;4.10;3.37;;;16.90;95.80;;;;;;5073415;28;20534;-65
2022/07/12 06:18:13;;;;;;;4.00;2.63;;;17.00;95.90;;;;;;5073803;28;20428;-65
2022/07/12 06:20:44;;;;;;;5.07;3.20;;;17.10;95.90;;;;;;5074184;28;20456;-67
2022/07/12 06:23:20;;;;;;;4.80;3.70;;;17.20;95.70;;;;;;5073241;28;20439;-65
2022/07/12 06:25:48;;;;;;;5.47;4.27;;;17.30;94.90;;;;;;5067034;28;20440;-65
2022/07/12 06:28:17;;;;;;;6.00;3.87;;;17.40;94.80;;;;;;5073267;28;20532;-66
2022/07/12 06:30:45;;;;;;;5.50;3.90;;;17.50;94.70;;;;;;5073109;28;20443;-66
2022/07/12 06:33:13;;;;;;;5.13;3.50;;;17.60;94.80;;;;;;5073511;28;20541;-65
2022/07/12 06:35:46;;;;;;;4.80;3.70;;;17.60;94.10;;;;;;5072151;28;20432;-67
2022/07/12 06:38:18;;;;;;;4.00;3.10;;;17.80;94.30;;;;;;5073391;28;20436;-65
2022/07/12 06:40:49;;;;;;;5.93;3.30;;;17.90;94.50;;;;;;5072403;28;20437;-65
2022/07/12 06:43:17;;;;;;;5.40;3.20;;;17.90;94.60;;;;;;5069774;28;20447;-66
2022/07/12 06:45:49;;;;;;;8.80;4.10;;;18.10;94.40;;;;;;5072575;28;20521;-68
2022/07/12 06:48:21;;;;;;;4.80;3.17;;;18.20;94.00;;;;;;5072869;28;20468;-67
2022/07/12 06:50:48;;;;;;;4.37;3.40;;;18.30;93.30;;;;;;5072419;28;20451;-68
2022/07/12 06:53:23;;;;;;;7.00;3.10;;;18.40;93.00;;;;;;5072683;28;20566;-65
2022/07/12 06:55:51;;;;;;;4.50;3.87;;;18.40;92.10;;;;;;5072998;28;20439;-67
2022/07/12 06:58:20;;;;;;;5.83;3.97;;;18.50;91.70;;;;;;5072075;28;20783;-67
2022/07/12 07:00:47;;;;;;;5.23;4.10;;;18.50;91.50;;;;;;5071552;28;20515;-67
2022/07/12 07:03:14;;;;;;;5.20;4.07;;;18.60;91.60;;;;;;5071424;28;20490;-66
2022/07/12 07:05:46;;;;;;;4.33;3.83;;;18.70;91.50;;;;;;5075070;28;20523;-65
2022/07/12 07:08:18;;;;;;;6.93;4.27;;;18.80;90.90;;;;;;5074556;28;20532;-65
2022/07/12 07:10:46;;;;;;;5.53;4.87;;;18.80;91.20;;;;;;5074856;28;20433;-65
2022/07/12 07:13:13;;;;;;;5.73;4.00;;;18.90;90.90;;;;;;5074278;28;20570;-66
2022/07/12 07:15:45;;;;;;;6.37;4.40;;;19.00;90.90;;;;;;5073875;28;20468;-65
2022/07/12 07:18:14;;;;;;;5.43;4.40;;;19.10;90.40;;;;;;5074876;28;20522;-66
2022/07/12 07:20:43;;;;;;;6.80;4.90;;;19.20;90.30;;;;;;5074731;28;20511;-65
2022/07/12 07:23:14;;;;;;;5.50;4.67;;;19.30;90.40;;;;;;5074562;28;20514;-65
2022/07/12 07:25:41;;;;;;;7.63;5.27;;;19.40;90.60;;;;;;5074818;28;20436;-65
2022/07/12 07:28:18;;;;;;;6.17;4.47;;;19.50;89.40;;;;;;5074547;28;20546;-66
2022/07/12 07:30:52;;;;;;;6.30;4.20;;;19.70;89.70;;;;;;5074594;28;20472;-65
2022/07/12 07:33:19;;;;;;;5.73;3.50;;;19.80;89.20;;;;;;5073944;28;20472;-65
2022/07/12 07:35:47;;;;;;;4.33;3.47;;;20.00;88.50;;;;;;5074321;28;20436;-65
2022/07/12 07:38:33;;;;;;;6.83;4.33;;;20.10;87.70;;;;;;5073847;28;20486;-65
2022/07/12 07:41:05;;;;;;;5.07;3.77;;;20.20;86.80;;;;;;5074398;28;20523;-65
2022/07/12 07:43:36;;;;;;;4.80;3.60;;;20.30;85.00;;;;;;5074475;28;21440;-65
2022/07/12 07:46:05;;;;;;;8.13;4.30;;;20.30;83.00;;;;;;5074480;28;20440;-65
2022/07/12 07:48:37;;;;;;;5.30;3.67;;;20.40;82.60;;;;;;5074089;28;20523;-65
2022/07/12 07:51:04;;;;;;;5.97;4.83;;;20.50;83.00;;;;;;5073984;28;20436;-65
2022/07/12 07:53:33;;;;;;;4.63;3.67;;;20.60;80.30;;;;;;5073751;28;20491;-65
2022/07/12 07:56:00;;;;;;;4.20;3.60;;;20.70;81.00;;;;;;5074497;28;20436;-65
2022/07/12 07:58:32;;;;;;;5.70;3.80;;;20.70;79.30;;;;;;5074013;28;20436;-65
2022/07/12 08:00:58;;;;;;;5.63;3.47;;;20.80;77.50;;;;;;5073432;28;20534;-65
2022/07/12 08:03:28;;;;;;;3.53;2.37;;;20.90;78.30;;;;;;5073902;28;20444;-65
2022/07/12 08:06:00;;;;;;;3.67;2.90;;;21.00;77.30;;;;;;5073600;28;20930;-65
2022/07/12 08:08:28;;;;;;;4.27;2.47;;;21.10;77.40;;;;;;5074046;28;20436;-65
2022/07/12 08:11:00;;;;;;;3.80;2.80;;;21.20;76.90;;;;;;5073412;28;20443;-65
2022/07/12 08:13:32;;;;;;;4.20;3.00;;;21.30;75.90;;;;;;5073475;28;20577;-65
2022/07/12 08:15:59;;;;;;;4.70;2.63;;;21.50;77.80;;;;;;5073669;28;20515;-65
2022/07/12 08:18:26;;;;;;;3.60;2.63;;;21.70;78.50;;;;;;5073854;28;20444;-65
2022/07/12 08:20:55;;;;;;;3.57;2.60;;;21.80;78.30;;;;;;5073564;28;20443;-65
2022/07/12 08:23:28;;;;;;;3.90;2.43;;;22.00;77.30;;;;;;5072983;28;20923;-71
2022/07/12 08:25:55;;;;;;;3.30;2.47;;;22.30;77.10;;;;;;5073650;28;20779;-65
2022/07/12 08:28:35;;;;;;;4.03;1.93;;;22.40;74.40;;;;;;5072798;28;20471;-71
2022/07/12 08:31:04;;;;;;;6.33;2.27;;;22.60;72.90;;;;;;5072824;28;20479;-65
2022/07/12 08:33:31;;;;;;;2.60;1.70;;;22.70;71.60;;;;;;5073252;28;20536;-65
2022/07/12 08:36:00;;;;;;;6.27;2.63;;;22.80;67.70;;;;;;5073347;28;20482;-65
2022/07/12 08:38:33;;;;;;;3.50;2.40;;;22.90;68.20;;;;;;5073065;28;20442;-65
2022/07/12 08:41:00;;;;;;;4.03;2.13;;;23.00;67.10;;;;;;5073282;28;20554;-65
2022/07/12 08:43:34;;;;;;;2.73;1.90;;;23.10;66.70;;;;;;5073168;28;20542;-65
2022/07/12 08:46:04;;;;;;;3.33;1.87;;;23.20;66.20;;;;;;5072997;28;20816;-65
2022/07/12 08:48:36;;;;;;;2.60;1.60;;;23.30;64.10;;;;;;5073377;28;20441;-65
2022/07/12 08:51:06;;;;;;;3.50;1.73;;;23.40;63.30;;;;;;5073229;28;20450;-65
2022/07/12 08:53:34;;;;;;;2.77;1.63;;;23.40;61.80;;;;;;5073430;28;20487;-65
2022/07/12 08:56:02;;;;;;;3.00;1.57;;;23.40;60.30;;;;;;5073049;28;20436;-65
2022/07/12 08:58:29;;;;;;;2.90;1.33;;;23.50;62.20;;;;;;5072681;28;20462;-65
2022/07/12 09:00:58;;;;;;;5.00;2.10;;;23.60;63.00;;;;;;5073032;28;20542;-65
2022/07/12 09:03:27;;;;;;;2.80;2.17;;;23.80;61.60;;;;;;5073219;28;20476;-65
2022/07/12 09:05:56;;;;;;;2.20;1.40;;;23.80;59.50;;;;;;5073070;28;20432;-66
2022/07/12 09:08:40;;;;;;;2.83;1.50;;;23.90;57.20;;;;;;5072765;28;20497;-65
2022/07/12 09:11:08;;;;;;;3.63;1.70;;;23.90;57.30;;;;;;5072822;28;20438;-64
2022/07/12 09:13:52;;;;;;;4.00;1.53;;;24.00;56.70;;;;;;5073126;28;20533;-65
2022/07/12 09:16:20;;;;;;;2.63;1.40;;;24.10;58.40;;;;;;5072721;28;20526;-65
2022/07/12 09:18:52;;;;;;;2.17;1.30;;;24.20;58.00;;;;;;5072654;28;21008;-65
2022/07/12 09:21:24;;;;;;;2.70;1.70;;;24.30;56.40;;;;;;5072558;28;20539;-65
2022/07/12 09:23:56;;;;;;;2.67;1.80;;;24.50;58.30;;;;;;5075613;28;20534;-66
2022/07/12 09:26:24;;;;;;;4.00;1.57;;;24.60;58.10;;;;;;5076903;28;20516;-65
2022/07/12 09:28:52;;;;;;;3.47;1.97;;;24.70;58.20;;;;;;5076664;28;20471;-65
2022/07/12 09:31:21;;;;;;;2.70;1.50;;;24.90;57.20;;;;;;5076419;28;20436;-65
2022/07/12 09:36:56;;;;;;;2.93;1.80;;;25.10;56.10;;;;;;5076679;28;20955;-66
2022/07/12 09:39:26;;;;;;;3.00;1.77;;;25.20;55.90;;;;;;5076274;28;20518;-64
2022/07/12 09:41:56;;;;;;;1.87;0.90;;;25.30;55.10;;;;;;5076306;28;20941;-65
2022/07/12 09:44:25;;;;;;;3.50;1.90;;;25.30;55.50;;;;;;5076431;28;20794;-65
2022/07/12 09:46:52;;;;;;;3.70;1.80;;;25.40;54.70;;;;;;5076334;28;20490;-65
2022/07/12 09:49:22;;;;;;;3.57;1.90;;;25.40;55.70;;;;;;5076309;28;20498;-65
2022/07/12 09:51:55;;;;;;;2.27;1.37;;;25.50;54.30;;;;;;5076470;28;20435;-65
2022/07/12 09:54:29;;;;;;;2.90;1.60;;;25.50;52.80;;;;;;5076613;28;20584;-65
2022/07/12 09:57:03;;;;;;;2.63;1.40;;;25.50;53.10;;;;;;5076308;28;20439;-64
2022/07/12 09:59:37;;;;;;;3.80;1.20;;;25.60;53.50;;;;;;5076432;28;20527;-64
2022/07/12 10:02:05;;;;;;;3.07;1.73;;;25.60;53.90;;;;;;5076381;28;20797;-65
2022/07/12 10:04:34;;;;;;;3.37;1.50;;;25.70;53.60;;;;;;5076171;28;20468;-65
2022/07/12 10:07:33;;;;;;;2.90;1.60;;;25.80;53.30;;;;;;5076239;28;20436;-65
2022/07/12 10:10:43;;;;;;;2.10;1.37;;;25.80;53.10;;;;;;5075903;28;20518;-64
2022/07/12 10:13:12;;;;;;;2.23;1.40;;;25.90;53.80;;;;;;5075922;28;20431;-65
2022/07/12 10:15:43;;;;;;;3.27;1.60;;;25.90;53.30;;;;;;5076083;28;21057;-65
2022/07/12 10:18:16;;;;;;;4.20;1.50;;;26.00;54.80;;;;;;5076252;28;20464;-65
2022/07/12 10:20:44;;;;;;;2.30;1.30;;;26.10;52.50;;;;;;5076001;28;20444;-64
2022/07/12 10:23:34;;;;;;;2.20;1.20;;;26.10;52.70;;;;;;5076041;28;20435;-65
2022/07/12 10:26:02;;;;;;;4.23;1.47;;;26.10;53.60;;;;;;5075976;28;20440;-65
2022/07/12 10:29:00;;;;;;;1.83;1.00;;;26.20;54.50;;;;;;5075509;28;20503;-65
2022/07/12 10:31:31;;;;;;;1.90;1.10;;;26.30;54.90;;;;;;5074718;28;20473;-65
2022/07/12 10:34:13;;;;;;;2.47;1.40;;;26.40;54.70;;;;;;5074581;28;20471;-65
2022/07/12 10:37:10;;;;;;;2.33;1.40;;;26.40;54.20;;;;;;5068646;28;20472;-65
2022/07/12 10:39:40;;;;;;;2.13;1.20;;;26.50;53.70;;;;;;5074350;28;20424;-65
2022/07/12 10:42:17;;;;;;;2.93;1.40;;;26.60;52.70;;;;;;5074206;28;20479;-65
2022/07/12 10:45:05;;;;;;;3.83;1.23;;;26.60;52.40;;;;;;5074522;28;20432;-66
2022/07/12 10:48:03;;;;;;;2.27;1.40;;;26.80;53.80;;;;;;5073877;28;20506;-65
2022/07/12 10:50:58;;;;;;;2.50;1.73;;;26.90;53.50;;;;;;5074379;28;20494;-65
2022/07/12 10:53:33;;;;;;;2.77;1.23;;;27.00;51.20;;;;;;5055323;28;20437;-65
2022/07/12 10:56:19;;;;;;;2.97;1.90;;;27.00;52.20;;;;;;5054660;28;20460;-65
2022/07/12 10:58:53;;;;;;;2.87;1.77;;;27.10;52.10;;;;;;5055957;28;20515;-65
2022/07/12 11:01:26;;;;;;;2.90;1.80;;;27.20;49.70;;;;;;5073624;28;21010;-65
2022/07/12 11:04:05;;;;;;;3.27;1.00;;;27.30;51.50;;;;;;5073753;28;20527;-66
2022/07/12 11:06:36;;;;;;;3.03;1.50;;;27.40;50.30;;;;;;5074135;28;20861;-65
2022/07/12 11:09:08;;;;;;;2.03;1.27;;;27.40;51.20;;;;;;5054578;28;20421;-65
2022/07/12 11:11:43;;;;;;;2.77;1.40;;;27.50;51.80;;;;;;5055298;28;20923;-65
2022/07/12 11:14:12;;;;;;;1.97;1.20;;;27.30;47.90;;;;;;5074902;28;20868;-65
2022/07/12 11:16:47;;;;;;;2.47;1.40;;;27.20;48.60;;;;;;5073904;28;20444;-65
2022/07/12 11:19:16;;;;;;;3.53;1.53;;;27.10;50.10;;;;;;5074659;28;20764;-65
2022/07/12 11:21:45;;;;;;;2.50;1.57;;;27.00;49.80;;;;;;5074491;28;20467;-66
2022/07/12 11:24:32;;;;;;;3.93;1.90;;;27.00;50.30;;;;;;5074563;28;20926;-65
2022/07/12 11:27:07;;;;;;;2.40;1.20;;;26.90;50.80;;;;;;5074039;28;20446;-66
2022/07/12 11:29:57;;;;;;;2.47;1.37;;;27.00;50.30;;;;;;5074567;28;20442;-65
2022/07/12 11:32:37;;;;;;;2.80;1.60;;;27.10;48.60;;;;;;5074231;28;20540;-65
2022/07/12 11:35:19;;;;;;;2.67;1.17;;;27.30;50.60;;;;;;5074545;28;20519;-65
2022/07/12 11:37:53;;;;;;;2.00;1.20;;;27.30;47.90;;;;;;5074499;28;20432;-65
2022/07/12 11:40:31;;;;;;;1.90;1.10;;;27.30;49.10;;;;;;5074372;28;20472;-65
2022/07/12 11:43:04;;;;;;;2.30;1.57;;;27.40;49.20;;;;;;5074130;28;20526;-65
2022/07/12 11:45:34;;;;;;;2.17;1.33;;;27.40;50.10;;;;;;5073522;28;20501;-65
2022/07/12 11:48:05;;;;;;;2.93;2.13;;;27.40;49.50;;;;;;5073997;28;20490;-65
2022/07/12 11:50:34;;;;;;;2.10;1.27;;;27.50;49.30;;;;;;5074288;28;20539;-65
2022/07/12 11:53:01;;;;;;;4.67;1.20;;;27.50;47.80;;;;;;5073890;28;20436;-65
2022/07/12 11:55:43;;;;;;;2.17;1.30;;;27.40;46.50;;;;;;5073685;28;21207;-65
2022/07/12 11:58:10;;;;;;;3.27;1.50;;;27.30;46.70;;;;;;5073705;28;20462;-66
2022/07/12 12:00:40;;;;;;;2.73;1.33;;;27.20;47.10;;;;;;5073861;28;20431;-65
2022/07/12 12:03:12;;;;;;;2.30;1.10;;;27.20;47.70;;;;;;5074091;28;20480;-65
2022/07/12 12:05:41;;;;;;;1.97;1.10;;;27.10;47.70;;;;;;5073784;28;20956;-65
2022/07/12 12:08:18;;;;;;;2.40;1.50;;;27.00;47.30;;;;;;5073606;28;20476;-65
2022/07/12 12:10:55;;;;;;;2.67;1.60;;;27.10;48.90;;;;;;5073745;28;20494;-65
2022/07/12 12:13:28;;;;;;;2.63;1.23;;;27.10;48.20;;;;;;5073544;28;20416;-65
2022/07/12 12:16:03;;;;;;;2.27;1.67;;;27.10;47.90;;;;;;5073808;28;20480;-65
2022/07/12 12:18:35;;;;;;;3.30;1.40;;;27.00;48.20;;;;;;5073175;28;20523;-65
2022/07/12 12:21:07;;;;;;;4.40;1.60;;;27.10;48.70;;;;;;5073379;28;20436;-65
2022/07/12 12:23:40;;;;;;;4.77;1.93;;;27.10;49.20;;;;;;5073454;28;20443;-65
2022/07/12 12:26:15;;;;;;;3.33;1.60;;;27.30;48.00;;;;;;5073557;28;20444;-65
2022/07/12 12:28:47;;;;;;;2.47;1.50;;;27.30;45.70;;;;;;5072948;28;20513;-66
2022/07/12 12:31:17;;;;;;;6.90;1.60;;;27.30;47.70;;;;;;5073477;28;20424;-65
2022/07/12 12:33:52;;;;;;;1.93;1.23;;;27.30;47.20;;;;;;5073402;28;20505;-65
2022/07/12 12:36:29;;;;;;;2.50;1.70;;;27.30;47.90;;;;;;5073127;28;20486;-65
2022/07/12 12:39:01;;;;;;;2.57;1.30;;;27.30;48.90;;;;;;5073115;28;20952;-66
2022/07/12 12:41:31;;;;;;;2.63;1.67;;;27.30;49.30;;;;;;5073675;28;20501;-65
2022/07/12 12:44:01;;;;;;;3.07;1.47;;;27.30;49.10;;;;;;5073029;28;20472;-65
2022/07/12 12:46:53;;;;;;;2.40;1.80;;;27.40;49.10;;;;;;5073142;28;20432;-65
2022/07/12 12:49:45;;;;;;;2.20;1.37;;;27.30;47.50;;;;;;5073051;28;20448;-65
2022/07/12 12:52:18;;;;;;;4.13;2.07;;;27.20;47.90;;;;;;5069607;28;20446;-65
2022/07/12 12:54:46;;;;;;;3.70;1.57;;;27.10;47.40;;;;;;5072778;28;20476;-65
2022/07/12 12:57:15;;;;;;;2.20;1.20;;;27.10;47.60;;;;;;5072617;28;20440;-65
2022/07/12 12:59:42;;;;;;;3.13;1.67;;;27.00;48.20;;;;;;5072928;28;20432;-65
2022/07/12 13:02:14;;;;;;;2.60;1.70;;;27.00;48.30;;;;;;5073074;28;20440;-65
2022/07/12 13:04:48;;;;;;;3.40;1.30;;;27.00;48.00;;;;;;5073206;28;20501;-66
2022/07/12 13:07:20;;;;;;;7.90;1.70;;;27.00;49.70;;;;;;5073036;28;20448;-65
2022/07/12 13:09:47;;;;;;;3.60;1.53;;;26.90;50.00;;;;;;5072813;28;20478;-65
2022/07/12 13:12:18;;;;;;;2.60;1.30;;;26.90;50.30;;;;;;5072902;28;20472;-65
2022/07/12 13:15:07;;;;;;;3.10;1.50;;;27.00;49.50;;;;;;5072604;28;20573;-65